createdAt,value
2018-07-23T00:01:57.226Z,4.10
2018-07-23T00:04:26.521Z,3.40
2018-07-23T00:06:55.695Z,4.00
2018-07-23T00:09:24.924Z,4.20
2018-07-23T00:11:53.923Z,4.20
2018-07-23T00:14:22.919Z,3.97
2018-07-23T00:16:52.192Z,4.57
2018-07-23T00:19:21.231Z,4.47
2018-07-23T00:21:50.438Z,3.83
2018-07-23T00:24:19.669Z,3.57
2018-07-23T00:26:48.628Z,3.97
2018-07-23T00:29:18.060Z,3.77
2018-07-23T00:31:47.352Z,4.20
2018-07-23T00:34:16.358Z,3.90
2018-07-23T00:36:45.772Z,3.80
2018-07-23T00:39:15.029Z,4.40
2018-07-23T00:41:44.812Z,3.80
2018-07-23T00:44:14.058Z,3.67
2018-07-23T00:46:43.291Z,4.13
2018-07-23T00:49:12.543Z,3.83
2018-07-23T00:51:41.739Z,4.07
2018-07-23T00:54:10.963Z,3.80
2018-07-23T00:56:39.959Z,4.47
2018-07-23T00:59:09.249Z,3.70
2018-07-23T01:01:38.451Z,3.90
2018-07-23T01:04:07.667Z,4.23
2018-07-23T01:06:36.670Z,4.30
2018-07-23T01:09:07.094Z,4.07
2018-07-23T01:11:36.364Z,4.10
2018-07-23T01:14:06.168Z,3.77
2018-07-23T01:16:35.384Z,4.20
2018-07-23T01:19:04.408Z,4.20
2018-07-23T01:21:33.472Z,4.03
2018-07-23T01:24:02.692Z,3.87
2018-07-23T01:26:31.715Z,4.30
2018-07-23T01:29:00.735Z,4.10
2018-07-23T01:31:29.938Z,4.17
2018-07-23T01:33:59.165Z,3.90
2018-07-23T01:36:28.400Z,4.30
2018-07-23T01:38:57.619Z,4.20
2018-07-23T01:41:26.621Z,4.40
2018-07-23T01:43:55.872Z,3.97
2018-07-23T01:46:25.508Z,4.40
2018-07-23T01:48:54.715Z,3.80
2018-07-23T01:51:23.959Z,4.53
2018-07-23T01:53:52.955Z,4.83
2018-07-23T01:56:22.232Z,4.57
2018-07-23T01:58:51.443Z,4.77
2018-07-23T02:01:20.673Z,4.27
2018-07-23T02:03:49.743Z,4.20
2018-07-23T02:06:18.679Z,3.90
2018-07-23T02:08:47.766Z,4.43
2018-07-23T02:11:16.966Z,4.53
2018-07-23T02:13:46.198Z,4.60
2018-07-23T02:16:15.428Z,4.33
2018-07-23T02:18:44.486Z,4.70
2018-07-23T02:21:13.456Z,4.07
2018-07-23T02:23:42.728Z,4.40
2018-07-23T02:26:11.944Z,4.80
2018-07-23T02:28:41.160Z,4.47
2018-07-23T02:31:10.361Z,4.43
2018-07-23T02:33:39.613Z,4.20
2018-07-23T02:36:08.842Z,4.37
2018-07-23T02:38:37.843Z,4.63
2018-07-23T02:41:06.683Z,4.60
2018-07-23T02:43:35.950Z,4.57
2018-07-23T02:46:05.240Z,4.70
2018-07-23T02:48:34.859Z,4.77
2018-07-23T02:51:04.044Z,4.37
2018-07-23T02:53:33.231Z,4.00
2018-07-23T02:56:02.549Z,4.47
2018-07-23T02:58:31.679Z,4.60
2018-07-23T03:01:00.916Z,4.40
2018-07-23T03:03:29.928Z,4.23
2018-07-23T03:05:58.920Z,4.67
2018-07-23T03:08:28.252Z,4.53
2018-07-23T03:10:57.416Z,4.20
2018-07-23T03:13:26.629Z,4.70
2018-07-23T03:15:55.671Z,4.13
2018-07-23T03:18:24.905Z,4.13
2018-07-23T03:20:53.795Z,4.57
2018-07-23T03:23:23.005Z,4.60
2018-07-23T03:25:51.964Z,4.93
2018-07-23T03:28:21.233Z,4.80
2018-07-23T03:30:50.452Z,5.20
2018-07-23T03:33:19.659Z,8.53
2018-07-23T03:35:48.876Z,4.93
2018-07-23T03:38:17.871Z,4.27
2018-07-23T03:40:47.120Z,5.40
2018-07-23T03:43:16.375Z,5.00
2018-07-23T03:45:45.592Z,4.30
2018-07-23T03:48:14.853Z,4.93
2018-07-23T03:50:43.811Z,4.47
2018-07-23T03:53:13.276Z,4.73
2018-07-23T03:55:42.630Z,4.60
2018-07-23T03:58:11.951Z,4.80
2018-07-23T04:00:41.144Z,4.13
2018-07-23T04:03:10.379Z,4.90
2018-07-23T04:05:39.384Z,4.87
2018-07-23T04:08:08.400Z,4.43
2018-07-23T04:10:37.487Z,4.83
2018-07-23T04:13:06.680Z,4.87
2018-07-23T04:15:35.909Z,4.43
2018-07-23T04:18:05.211Z,4.97
2018-07-23T04:20:35.874Z,4.97
2018-07-23T04:23:05.862Z,4.63
2018-07-23T04:25:35.347Z,4.57
2018-07-23T04:28:04.647Z,5.10
2018-07-23T04:30:33.847Z,4.47
2018-07-23T04:33:03.071Z,4.93
2018-07-23T04:35:32.271Z,4.83
2018-07-23T04:38:00.766Z,4.27
2018-07-23T04:40:29.308Z,4.93
2018-07-23T04:42:58.570Z,4.70
2018-07-23T04:45:27.803Z,4.60
2018-07-23T04:47:56.816Z,4.90
2018-07-23T04:50:25.987Z,4.70
2018-07-23T04:52:55.292Z,4.87
2018-07-23T04:55:24.267Z,5.37
2018-07-23T04:57:53.732Z,5.00
2018-07-23T05:00:22.988Z,4.80
2018-07-23T05:02:52.178Z,4.63
2018-07-23T05:05:21.038Z,5.03
2018-07-23T05:07:50.249Z,5.17
2018-07-23T05:10:19.240Z,5.27
2018-07-23T05:12:48.674Z,5.17
2018-07-23T05:15:17.932Z,5.37
2018-07-23T05:17:47.148Z,5.30
2018-07-23T05:20:16.375Z,5.17
2018-07-23T05:22:45.399Z,4.93
2018-07-23T05:25:14.641Z,5.37
2018-07-23T05:27:43.887Z,4.60
2018-07-23T05:30:13.281Z,5.37
2018-07-23T05:32:42.812Z,5.77
2018-07-23T05:35:12.104Z,5.13
2018-07-23T05:37:41.326Z,5.10
2018-07-23T05:40:10.583Z,5.93
2018-07-23T05:42:39.587Z,5.13
2018-07-23T05:45:08.602Z,5.20
2018-07-23T05:47:37.160Z,5.73
2018-07-23T05:50:06.089Z,5.10
2018-07-23T05:52:35.355Z,5.00
2018-07-23T05:55:04.353Z,4.57
2018-07-23T05:57:33.583Z,4.83
2018-07-23T06:00:02.785Z,4.83
2018-07-23T06:02:32.056Z,5.00
2018-07-23T06:05:01.533Z,5.47
2018-07-23T06:07:30.857Z,4.73
2018-07-23T06:10:00.115Z,4.63
2018-07-23T06:12:29.331Z,4.60
2018-07-23T06:14:57.860Z,5.13
2018-07-23T06:17:27.022Z,5.20
2018-07-23T06:19:56.231Z,4.73
2018-07-23T06:22:25.384Z,4.70
2018-07-23T06:24:54.512Z,5.23
2018-07-23T06:27:23.484Z,5.10
2018-07-23T06:29:52.529Z,5.77
2018-07-23T06:32:21.598Z,5.30
2018-07-23T06:34:51.000Z,4.83
2018-07-23T06:37:19.572Z,5.33
2018-07-23T06:39:48.164Z,5.40
2018-07-23T06:42:16.710Z,4.70
2018-07-23T06:44:45.220Z,5.23
2018-07-23T06:47:14.364Z,4.67
2018-07-23T06:49:42.875Z,5.13
2018-07-23T06:52:11.744Z,4.63
2018-07-23T06:54:40.287Z,4.60
2018-07-23T06:57:09.264Z,4.50
2018-07-23T06:59:37.772Z,5.53
2018-07-23T07:02:06.665Z,4.67
2018-07-23T07:04:35.251Z,5.20
2018-07-23T07:07:03.944Z,4.70
2018-07-23T07:09:32.592Z,5.00
2018-07-23T07:12:01.116Z,4.90
2018-07-23T07:14:30.364Z,4.90
2018-07-23T07:16:59.585Z,4.73
2018-07-23T07:19:29.074Z,4.70
2018-07-23T07:21:58.263Z,4.63
2018-07-23T07:24:27.463Z,4.80
2018-07-23T07:26:56.672Z,5.33
2018-07-23T07:29:25.900Z,5.50
2018-07-23T07:31:55.123Z,4.93
2018-07-23T07:34:24.349Z,5.27
2018-07-23T07:36:53.369Z,4.97
2018-07-23T07:39:22.571Z,5.40
2018-07-23T07:41:52.192Z,5.13
2018-07-23T07:44:20.704Z,5.53
2018-07-23T07:46:49.216Z,5.77
2018-07-23T07:49:18.322Z,5.97
2018-07-23T07:51:47.556Z,5.07
2018-07-23T07:54:16.552Z,6.13
2018-07-23T07:56:45.806Z,5.60
2018-07-23T07:59:15.057Z,5.20
2018-07-23T08:01:44.273Z,5.77
2018-07-23T08:04:13.464Z,5.13
2018-07-23T08:06:42.737Z,5.70
2018-07-23T08:09:11.946Z,5.33
2018-07-23T08:11:41.148Z,5.40
2018-07-23T08:14:10.568Z,5.97
2018-07-23T08:16:39.847Z,5.50
2018-07-23T08:19:09.052Z,5.90
2018-07-23T08:21:38.271Z,5.87
2018-07-23T08:24:07.280Z,5.40
2018-07-23T08:26:36.558Z,5.20
2018-07-23T08:29:05.754Z,5.13
2018-07-23T08:31:35.065Z,6.27
2018-07-23T08:34:04.177Z,5.47
2018-07-23T08:36:33.565Z,6.43
2018-07-23T08:39:02.881Z,5.73
2018-07-23T08:41:32.069Z,5.30
2018-07-23T08:44:01.472Z,5.70
2018-07-23T08:46:30.801Z,5.33
2018-07-23T08:48:59.944Z,5.83
2018-07-23T08:51:28.947Z,5.70
2018-07-23T08:53:58.233Z,5.80
2018-07-23T08:56:27.429Z,5.50
2018-07-23T08:58:56.437Z,5.70
2018-07-23T09:01:25.461Z,5.87
2018-07-23T09:03:54.808Z,6.33
2018-07-23T09:06:23.955Z,6.40
2018-07-23T09:08:52.944Z,5.73
2018-07-23T09:11:21.987Z,6.00
2018-07-23T09:13:51.232Z,6.40
2018-07-23T09:16:20.460Z,5.90
2018-07-23T09:18:49.029Z,6.20
2018-07-23T09:21:17.536Z,5.30
2018-07-23T09:23:46.145Z,5.93
2018-07-23T09:26:14.661Z,5.83
2018-07-23T09:28:43.236Z,5.57
2018-07-23T09:31:11.773Z,5.67
2018-07-23T09:33:40.633Z,5.33
2018-07-23T09:36:09.145Z,5.97
2018-07-23T09:38:37.661Z,5.77
2018-07-23T09:41:06.243Z,5.43
2018-07-23T09:43:35.471Z,5.73
2018-07-23T09:46:04.679Z,5.37
2018-07-23T09:48:33.930Z,5.40
2018-07-23T09:51:03.181Z,4.97
2018-07-23T09:53:31.696Z,6.27
2018-07-23T09:56:00.233Z,5.73
2018-07-23T09:58:28.753Z,5.90
2018-07-23T10:00:58.291Z,4.97
2018-07-23T10:03:26.965Z,4.43
2018-07-23T10:05:55.395Z,4.20
2018-07-23T10:08:23.920Z,4.67
2018-07-23T10:10:52.511Z,4.50
2018-07-23T10:13:21.042Z,4.70
2018-07-23T10:15:49.664Z,4.93
2018-07-23T10:18:18.186Z,4.67
2018-07-23T10:20:46.706Z,4.73
2018-07-23T10:23:15.467Z,4.07
2018-07-23T10:25:43.999Z,4.30
2018-07-23T10:28:12.540Z,4.30
2018-07-23T10:30:41.059Z,4.73
2018-07-23T10:33:09.587Z,4.07
2018-07-23T10:35:38.107Z,4.83
2018-07-23T10:38:06.636Z,4.17
2018-07-23T10:40:35.207Z,4.30
2018-07-23T10:43:03.788Z,4.30
2018-07-23T10:45:32.305Z,4.87
2018-07-23T10:48:00.863Z,4.20
2018-07-23T10:50:29.388Z,4.57
2018-07-23T10:52:57.935Z,4.60
2018-07-23T10:55:27.128Z,4.03
2018-07-23T10:57:56.298Z,4.80
2018-07-23T11:00:25.546Z,5.10
2018-07-23T11:02:54.519Z,4.90
2018-07-23T11:05:23.037Z,5.00
2018-07-23T11:07:51.547Z,4.60
2018-07-23T11:10:20.067Z,4.60
2018-07-23T11:12:48.664Z,4.90
2018-07-23T11:15:17.200Z,5.07
2018-07-23T11:17:46.385Z,4.70
2018-07-23T11:20:15.366Z,5.07
2018-07-23T11:22:43.889Z,4.67
2018-07-23T11:25:38.503Z,4.93
2018-07-23T11:27:41.180Z,4.90
2018-07-23T11:30:09.720Z,4.93
2018-07-23T11:32:38.262Z,4.93
2018-07-23T11:35:06.803Z,4.87
2018-07-23T11:37:35.315Z,4.47
2018-07-23T11:40:03.982Z,5.13
2018-07-23T11:42:32.511Z,4.60
2018-07-23T11:45:01.049Z,4.37
2018-07-23T11:47:29.555Z,4.57
2018-07-23T11:49:58.147Z,4.57
2018-07-23T11:52:27.044Z,4.10
2018-07-23T11:54:56.314Z,5.00
2018-07-23T11:57:25.352Z,4.73
2018-07-23T11:59:54.874Z,5.30
2018-07-23T12:02:24.008Z,4.37
2018-07-23T12:04:53.213Z,5.30
2018-07-23T12:07:22.229Z,5.17
2018-07-23T12:09:51.249Z,4.97
2018-07-23T12:12:20.327Z,4.97
2018-07-23T12:14:49.325Z,5.00
2018-07-23T12:17:18.342Z,5.47
2018-07-23T12:19:47.671Z,5.57
2018-07-23T12:22:17.103Z,5.10
2018-07-23T12:24:46.203Z,5.03
2018-07-23T12:27:15.491Z,4.97
2018-07-23T12:29:44.660Z,4.87
2018-07-23T12:32:13.974Z,4.50
2018-07-23T12:34:43.139Z,4.80
2018-07-23T12:37:12.372Z,5.13
2018-07-23T12:39:41.637Z,4.43
2018-07-23T12:42:10.603Z,5.40
2018-07-23T12:44:39.864Z,4.83
2018-07-23T12:47:09.151Z,5.00
2018-07-23T12:49:38.315Z,4.90
2018-07-23T12:52:07.303Z,4.97
2018-07-23T12:54:36.609Z,5.00
2018-07-23T12:57:05.774Z,4.83
2018-07-23T12:59:34.829Z,5.60
2018-07-23T13:02:04.061Z,4.83
2018-07-23T13:04:33.307Z,5.13
2018-07-23T13:07:02.500Z,4.90
2018-07-23T13:09:31.611Z,4.87
2018-07-23T13:12:00.949Z,4.80
2018-07-23T13:14:30.167Z,5.30
2018-07-23T13:16:59.415Z,5.10
2018-07-23T13:19:28.624Z,4.87
2018-07-23T13:21:57.843Z,4.30
2018-07-23T13:24:27.079Z,4.80
2018-07-23T13:26:56.116Z,5.33
2018-07-23T13:29:25.181Z,5.53
2018-07-23T13:31:54.343Z,4.67
2018-07-23T13:34:23.588Z,4.97
2018-07-23T13:36:52.856Z,5.30
2018-07-23T13:39:21.820Z,5.07
2018-07-23T13:41:51.079Z,4.90
2018-07-23T13:44:20.295Z,4.43
2018-07-23T13:46:49.319Z,5.20
2018-07-23T13:49:18.306Z,5.13
2018-07-23T13:51:47.345Z,5.17
2018-07-23T13:54:16.402Z,4.87
2018-07-23T13:56:45.631Z,4.90
2018-07-23T13:59:14.889Z,4.80
2018-07-23T14:01:44.077Z,5.07
2018-07-23T14:04:13.323Z,4.63
2018-07-23T14:06:42.546Z,4.97
2018-07-23T14:09:12.573Z,5.07
2018-07-23T14:11:41.377Z,5.10
2018-07-23T14:14:09.928Z,5.33
2018-07-23T14:16:38.457Z,5.20
2018-07-23T14:19:07.672Z,5.00
2018-07-23T14:21:37.121Z,4.80
2018-07-23T14:24:06.336Z,5.77
2018-07-23T14:26:35.546Z,5.00
2018-07-23T14:29:04.068Z,5.20
2018-07-23T14:31:32.599Z,5.10
2018-07-23T14:34:01.120Z,5.27
2018-07-23T14:36:29.631Z,4.83
2018-07-23T14:38:58.140Z,4.87
2018-07-23T14:41:26.776Z,5.43
2018-07-23T14:43:55.329Z,4.93
2018-07-23T14:46:23.842Z,5.43
2018-07-23T14:48:52.353Z,4.60
2018-07-23T14:51:20.894Z,5.20
2018-07-23T14:53:49.415Z,4.90
2018-07-23T14:56:17.945Z,5.90
2018-07-23T14:58:46.473Z,5.30
2018-07-23T15:01:15.484Z,5.10
2018-07-23T15:03:44.463Z,5.00
2018-07-23T15:06:13.832Z,4.60
2018-07-23T15:08:42.951Z,4.87
2018-07-23T15:11:12.180Z,4.83
2018-07-23T15:13:41.227Z,5.27
2018-07-23T15:16:10.402Z,4.73
2018-07-23T15:18:39.671Z,5.13
2018-07-23T15:21:08.892Z,4.83
2018-07-23T15:23:38.091Z,5.40
2018-07-23T15:26:07.367Z,5.60
2018-07-23T15:28:36.569Z,4.50
2018-07-23T15:31:05.798Z,5.07
2018-07-23T15:33:35.012Z,5.03
2018-07-23T15:36:04.057Z,5.07
2018-07-23T15:38:33.515Z,4.83
2018-07-23T15:41:02.492Z,5.20
2018-07-23T15:43:31.019Z,4.83
2018-07-23T15:46:00.234Z,5.30
2018-07-23T15:48:29.184Z,5.10
2018-07-23T15:50:58.195Z,5.60
2018-07-23T15:53:27.439Z,5.17
2018-07-23T15:55:56.455Z,4.90
2018-07-23T15:58:25.488Z,5.03
2018-07-23T16:00:54.727Z,5.00
2018-07-23T16:03:23.963Z,5.10
2018-07-23T16:05:53.179Z,5.20
2018-07-23T16:08:22.403Z,5.63
2018-07-23T16:10:51.467Z,4.80
2018-07-23T16:13:20.684Z,5.57
2018-07-23T16:15:49.891Z,5.17
2018-07-23T16:18:19.340Z,4.70
2018-07-23T16:20:48.383Z,4.80
2018-07-23T16:23:17.589Z,5.03
2018-07-23T16:25:46.794Z,4.73
2018-07-23T16:28:16.036Z,4.93
2018-07-23T16:30:45.018Z,5.10
2018-07-23T16:33:14.270Z,5.07
2018-07-23T16:35:43.536Z,4.97
2018-07-23T16:38:12.784Z,5.00
2018-07-23T16:40:41.727Z,5.07
2018-07-23T16:43:10.987Z,4.90
2018-07-23T16:45:40.199Z,4.97
2018-07-23T16:48:09.426Z,4.80
2018-07-23T16:50:39.072Z,4.57
2018-07-23T16:53:07.976Z,4.97
2018-07-23T16:55:37.103Z,4.97
2018-07-23T16:58:06.126Z,4.67
2018-07-23T17:00:35.344Z,4.97
2018-07-23T17:03:04.591Z,5.47
2018-07-23T17:05:33.847Z,6.50
2018-07-23T17:08:02.850Z,5.30
2018-07-23T17:10:31.883Z,5.37
2018-07-23T17:13:01.077Z,5.47
2018-07-23T17:15:30.319Z,6.10
2018-07-23T17:17:59.432Z,5.13
2018-07-23T17:20:28.609Z,5.67
2018-07-23T17:22:57.849Z,5.30
2018-07-23T17:25:27.050Z,5.00
2018-07-23T17:27:56.267Z,5.60
2018-07-23T17:30:25.494Z,5.13
2018-07-23T17:32:54.511Z,5.67
2018-07-23T17:35:23.817Z,5.00
2018-07-23T17:37:52.739Z,5.10
2018-07-23T17:40:22.006Z,5.10
2018-07-23T17:42:51.229Z,4.80
2018-07-23T17:45:20.428Z,4.73
2018-07-23T17:47:49.670Z,5.33
2018-07-23T17:50:18.907Z,5.17
2018-07-23T17:52:48.122Z,5.00
2018-07-23T17:55:17.446Z,5.10
2018-07-23T17:57:46.466Z,5.83
2018-07-23T18:00:15.608Z,4.77
2018-07-23T18:02:44.854Z,5.10
2018-07-23T18:05:13.938Z,4.50
2018-07-23T18:07:42.842Z,4.53
2018-07-23T18:10:11.897Z,4.57
2018-07-23T18:12:40.971Z,4.40
2018-07-23T18:15:10.203Z,4.80
2018-07-23T18:17:39.404Z,4.47
2018-07-23T18:20:08.564Z,4.47
2018-07-23T18:22:37.632Z,4.60
2018-07-23T18:25:06.729Z,4.20
2018-07-23T18:27:35.956Z,5.77
2018-07-23T18:30:05.722Z,4.60
2018-07-23T18:32:34.948Z,4.07
2018-07-23T18:35:04.388Z,4.10
2018-07-23T18:37:34.213Z,3.83
2018-07-23T18:40:03.838Z,4.00
2018-07-23T18:42:33.422Z,3.70
2018-07-23T18:45:02.694Z,3.50
2018-07-23T18:47:31.667Z,4.00
2018-07-23T18:50:01.409Z,3.90
2018-07-23T18:52:31.745Z,3.90
2018-07-23T18:55:01.560Z,5.00
2018-07-23T18:57:30.799Z,8.30
2018-07-23T19:00:00.064Z,3.97
2018-07-23T19:02:29.391Z,3.80
2018-07-23T19:04:58.619Z,3.13
2018-07-23T19:07:27.871Z,3.37
2018-07-23T19:09:57.263Z,4.03
2018-07-23T19:12:26.686Z,3.33
2018-07-23T19:14:55.937Z,3.77
2018-07-23T19:17:25.257Z,3.50
2018-07-23T19:19:54.592Z,4.17
2018-07-23T19:22:24.009Z,3.40
2018-07-23T19:24:53.210Z,3.53
2018-07-23T19:27:22.614Z,3.87
2018-07-23T19:29:51.637Z,4.17
2018-07-23T19:32:20.942Z,4.10
2018-07-23T19:34:50.116Z,3.87
2018-07-23T19:37:19.343Z,3.70
2018-07-23T19:39:48.742Z,3.67
2018-07-23T19:42:18.032Z,3.90
2018-07-23T19:44:47.230Z,4.33
2018-07-23T19:47:16.227Z,4.40
2018-07-23T19:49:45.502Z,4.20
2018-07-23T19:52:14.726Z,4.17
2018-07-23T19:54:44.125Z,4.00
2018-07-23T19:57:13.115Z,4.10
2018-07-23T19:59:42.371Z,3.83
2018-07-23T20:02:11.611Z,4.23
2018-07-23T20:04:40.901Z,3.87
2018-07-23T20:07:09.819Z,3.83
2018-07-23T20:09:39.076Z,4.20
2018-07-23T20:12:08.324Z,3.97
2018-07-23T20:14:37.539Z,4.23
2018-07-23T20:17:06.555Z,4.27
2018-07-23T20:19:35.590Z,4.10
2018-07-23T20:22:04.815Z,4.47
2018-07-23T20:24:34.053Z,4.10
2018-07-23T20:27:03.280Z,4.30
2018-07-23T20:29:32.296Z,3.83
2018-07-23T20:32:01.560Z,4.10
2018-07-23T20:34:30.784Z,4.47
2018-07-23T20:37:00.024Z,4.43
2018-07-23T20:39:28.976Z,4.00
2018-07-23T20:41:58.411Z,4.27
2018-07-23T20:44:27.696Z,4.30
2018-07-23T20:46:56.882Z,4.37
2018-07-23T20:49:25.877Z,4.73
2018-07-23T20:51:55.235Z,4.53
2018-07-23T20:54:24.606Z,4.77
2018-07-23T20:56:53.762Z,4.67
2018-07-23T20:59:22.779Z,4.00
2018-07-23T21:01:51.870Z,5.10
2018-07-23T21:04:21.062Z,5.17
2018-07-23T21:06:50.319Z,4.57
2018-07-23T21:09:19.828Z,5.00
2018-07-23T21:11:49.136Z,4.30
2018-07-23T21:14:18.379Z,4.60
2018-07-23T21:16:47.615Z,4.97
2018-07-23T21:19:16.815Z,6.47
2018-07-23T21:21:46.104Z,5.33
2018-07-23T21:24:15.298Z,4.77
2018-07-23T21:26:44.279Z,4.83
2018-07-23T21:29:13.532Z,4.90
2018-07-23T21:31:42.752Z,4.83
2018-07-23T21:34:11.977Z,4.87
2018-07-23T21:36:41.198Z,4.80
2018-07-23T21:39:10.957Z,4.67
2018-07-23T21:41:40.339Z,4.67
2018-07-23T21:44:09.277Z,5.10
2018-07-23T21:46:38.507Z,4.80
2018-07-23T21:49:07.514Z,5.00
2018-07-23T21:51:36.954Z,4.77
2018-07-23T21:54:05.984Z,4.50
2018-07-23T21:56:34.983Z,4.60
2018-07-23T21:59:04.239Z,5.00
2018-07-23T22:01:33.456Z,4.70
2018-07-23T22:04:02.688Z,4.93
2018-07-23T22:06:31.942Z,4.73
2018-07-23T22:09:01.144Z,4.67
2018-07-23T22:11:30.410Z,4.83
2018-07-23T22:13:59.405Z,4.70
2018-07-23T22:16:28.643Z,4.60
2018-07-23T22:18:57.864Z,4.73
2018-07-23T22:21:27.067Z,5.30
2018-07-23T22:23:56.100Z,4.67
2018-07-23T22:26:25.323Z,4.40
2018-07-23T22:28:54.547Z,4.40
2018-07-23T22:31:24.000Z,4.80
2018-07-23T22:33:53.375Z,4.87
2018-07-23T22:36:22.641Z,4.83
2018-07-23T22:38:51.863Z,4.43
2018-07-23T22:41:21.099Z,5.37
2018-07-23T22:43:50.301Z,4.93
2018-07-23T22:46:19.585Z,4.63
2018-07-23T22:48:48.518Z,5.03
2018-07-23T22:51:17.575Z,5.20
2018-07-23T22:53:46.811Z,4.23
2018-07-23T22:56:16.050Z,4.70
2018-07-23T22:58:45.279Z,4.40
2018-07-23T23:01:14.279Z,6.07
2018-07-23T23:03:43.516Z,4.53
2018-07-23T23:06:12.744Z,4.17
2018-07-23T23:08:41.984Z,4.60
2018-07-23T23:11:10.984Z,4.90
2018-07-23T23:13:40.229Z,5.27
2018-07-23T23:16:09.440Z,5.37
2018-07-23T23:18:39.020Z,5.07
2018-07-23T23:21:08.299Z,4.83
2018-07-23T23:23:37.522Z,5.17
2018-07-23T23:26:06.553Z,5.70
2018-07-23T23:28:35.538Z,4.77
2018-07-23T23:31:04.822Z,5.33
2018-07-23T23:33:34.030Z,5.63
2018-07-23T23:36:04.259Z,5.70
2018-07-23T23:38:33.466Z,5.87
2018-07-23T23:41:02.710Z,4.67
2018-07-23T23:43:31.920Z,4.97
2018-07-23T23:46:00.979Z,5.87
2018-07-23T23:48:30.199Z,5.00
2018-07-23T23:50:59.455Z,5.03
2018-07-23T23:53:28.632Z,5.70
2018-07-23T23:55:57.861Z,5.43
2018-07-23T23:58:26.862Z,5.50
